Lawton, OK (73501)

1:08 PM CDT on August 20, 2017 (GMT -0500)
Liberty Hights | | Change Station

Elev 1184 ft 34.62 °N, 98.41 °W | Updated 42 seconds ago

Clear
Clear
90.0 °F
Feels Like 86 °F
N
2.0
Wind Variable Wind from South
Gusts 2.5 mph

Today
High -- | Low -- °F
--% Chance of Precip.
Yesterday
High -- | Low -- °F
Precip. -- in
Pressure 29.96 in
Visibility 10.0 miles
Clouds Clear
Heat Index 86 °F
Dew Point 42 °F
Humidity 19%
Rainfall 0.00 in
Snow Depth Not available.
6:58 AM 8:15 PM
Waning Crescent, 1% visible
METAR KLAW 201753Z 15009KT 10SM CLR 32/23 A3000 RMK AO2 SLP144 T03170233 10322 20233 58001
Pressure 29.96 in
Visibility 10.0 miles
Clouds Clear
Heat Index 86 °F
Dew Point 42 °F
Humidity 19%
Rainfall 0.00 in
Snow Depth Not available.
6:58 AM 8:15 PM
Waning Crescent, 1% visible
METAR KLAW 201753Z 15009KT 10SM CLR 32/23 A3000 RMK AO2 SLP144 T03170233 10322 20233 58001

Get Severe Weather Alerts

Thanks for signing up!

Be on the lookout for a verification email in your inbox.

You'll start receiving the daily forecast at 6 AM.

×

10-Day Weather Forecast

Almanac

Astronomy

Aug. 20, 2017 Rise Set
Actual Time
Civil Twilight
Nautical Twilight
Astronomical Twilight
Moon
Length of Visible Light
Length of Day
Tomorrow will be .
, % of the Moon is Illuminated

Today's Extremes

State Highs State Lows

Community

WunderPhotos

Category 6

Welcome to Category 6. This is the collective home for Weather Underground's featured writeups by Dr. Jeff Masters (right), Bob Henson (left), Chris Burt, and other regular contributors.

Nearby

Air Quality

  Air Quality AQ Index Pollutant
Not available.

Snow Depth

Station Depth Elevation

Earthquake Activity

City Distance Mag. Time & Date
Minimum magnitude displayed is 2.5.

Coastal Water Temperatures

Place Temperature

Stations

Nearby Weather Stations

Station Location Temp. Windchill Dew Point Humidity Wind Precip. Elev Updated Type
                   

Watches & Warnings

There are currently no watches in effect.